Time;durP1;ratioP1;P1;durP2;ratioP2;P2;SDS_P1;SDS_P2;PMS_P1;PMS_P2;Temp;Humidity;BMP_temperature;BMP_pressure;BME280_temperature;BME280_humidity;BME280_pressure;Samples;Min_cycle;Max_cycle;Signal;HPM_P1;HPM_P2
2021/06/13 00:01:10;;;;;;;7.00;3.72;;;;;;;23.37;56.53;100621.59;4798229;29;20062;-81
2021/06/13 00:04:14;;;;;;;6.47;3.50;;;;;;;23.28;56.39;100618.19;4809308;29;20062;-78
2021/06/13 00:07:19;;;;;;;5.78;3.60;;;;;;;23.25;56.21;100624.09;4809260;29;20058;-75
2021/06/13 00:10:23;;;;;;;5.38;3.50;;;;;;;23.23;56.30;100617.97;4808698;29;20061;-76
2021/06/13 00:13:27;;;;;;;4.57;3.47;;;;;;;23.23;56.29;100617.97;4809130;29;20383;-79
2021/06/13 00:16:32;;;;;;;7.03;3.47;;;;;;;23.17;56.10;100613.31;4797890;29;20058;-78
2021/06/13 00:19:36;;;;;;;6.28;3.60;;;;;;;23.12;56.21;100604.91;4809045;29;20053;-75
2021/06/13 00:22:42;;;;;;;5.28;3.53;;;;;;;23.07;56.26;100601.94;4808977;29;20054;-77
2021/06/13 00:25:47;;;;;;;4.40;3.33;;;;;;;23.11;56.16;100598.56;4797784;29;20077;-76
2021/06/13 00:28:53;;;;;;;4.10;3.30;;;;;;;23.06;56.00;100595.63;4808680;29;20058;-75
2021/06/13 00:31:58;;;;;;;4.00;3.20;;;;;;;22.95;56.16;100590.78;4779259;30;20066;-77
2021/06/13 00:35:05;;;;;;;5.50;3.55;;;;;;;22.93;56.34;100589.31;4790751;30;20060;-77
2021/06/13 00:38:09;;;;;;;5.57;3.33;;;;;;;22.98;56.05;100592.25;4779632;30;20054;-76
2021/06/13 00:41:18;;;;;;;3.60;3.08;;;;;;;22.94;55.86;100590.97;4779560;30;20408;-79
2021/06/13 00:44:23;;;;;;;5.63;3.55;;;;;;;22.88;55.44;100591.81;4790570;30;20055;-75
2021/06/13 00:47:27;;;;;;;3.88;3.42;;;;;;;22.92;54.84;100596.66;4790171;30;20058;-75
2021/06/13 00:50:39;;;;;;;4.10;3.22;;;;;;;22.95;54.90;100588.03;4779637;30;20502;-75
2021/06/13 00:53:46;;;;;;;5.78;3.53;;;;;;;22.93;54.98;100587.41;4779630;30;20070;-76
2021/06/13 00:56:51;;;;;;;4.50;3.25;;;;;;;22.86;55.09;100581.06;4779308;30;20396;-76
2021/06/13 00:59:56;;;;;;;4.43;3.58;;;;;;;22.86;55.12;100582.97;4790576;30;20135;-82
2021/06/13 01:03:00;;;;;;;5.15;3.20;;;;;;;22.85;55.36;100570.31;4790240;30;20391;-77
2021/06/13 01:06:05;;;;;;;4.47;3.45;;;;;;;22.80;54.78;100575.59;4778602;29;20066;-78
2021/06/13 01:09:13;;;;;;;4.50;3.20;;;;;;;22.81;54.79;100575.41;4779090;30;20054;-78
2021/06/13 01:12:24;;;;;;;4.10;3.13;;;;;;;22.75;55.08;100570.75;4778788;30;20409;-77
2021/06/13 01:15:41;;;;;;;3.67;2.88;;;;;;;22.73;54.79;100570.13;4778730;30;20067;-77
2021/06/13 01:18:55;;;;;;;5.03;3.30;;;;;;;22.69;54.72;100570.75;4789799;30;20074;-79
2021/06/13 01:22:25;;;;;;;5.60;3.08;;;;;;;22.73;54.44;100572.00;4778831;30;20062;-80
2021/06/13 01:25:55;;;;;;;4.28;3.17;;;;;;;22.71;54.83;100563.16;4778726;30;20058;-75
2021/06/13 01:29:23;;;;;;;5.65;4.32;;;;;;;22.69;54.67;100565.25;4790101;30;20062;-76
2021/06/13 01:32:31;;;;;;;5.57;3.13;;;;;;;22.50;54.80;100554.03;4789378;30;20058;-77
2021/06/13 01:35:37;;;;;;;3.70;3.28;;;;;;;22.50;54.93;100556.75;4789678;30;20059;-77
2021/06/13 01:38:45;;;;;;;3.92;3.25;;;;;;;22.47;54.81;100551.69;4789948;30;20046;-77
2021/06/13 01:41:52;;;;;;;4.30;3.30;;;;;;;22.42;54.96;100537.78;4789649;30;20050;-77
2021/06/13 01:45:02;;;;;;;4.53;3.78;;;;;;;22.35;54.86;100536.94;4789523;30;20059;-81
2021/06/13 01:48:12;;;;;;;5.35;3.28;;;;;;;22.35;55.14;100536.94;4789045;30;20054;-81
2021/06/13 01:51:19;;;;;;;8.43;3.78;;;;;;;22.25;55.31;100533.75;4778318;30;20491;-76
2021/06/13 01:54:27;;;;;;;4.10;2.95;;;;;;;22.29;55.38;100532.31;4778396;30;20070;-77
2021/06/13 01:57:34;;;;;;;3.40;3.10;;;;;;;22.23;55.32;100526.81;4778289;30;20136;-75
2021/06/13 02:00:53;;;;;;;4.72;3.10;;;;;;;22.20;55.26;100524.47;4789574;30;20055;-79
2021/06/13 02:04:02;;;;;;;6.60;3.28;;;;;;;22.17;55.21;100533.94;4778247;30;20062;-84
2021/06/13 02:07:20;;;;;;;6.35;2.92;;;;;;;22.13;55.20;100527.19;4777862;30;20054;-79
2021/06/13 02:10:27;;;;;;;5.43;3.10;;;;;;;22.08;55.21;100531.59;4778139;30;20178;-77
2021/06/13 02:13:33;;;;;;;3.65;3.15;;;;;;;22.10;55.10;100521.31;4789062;30;20078;-76
2021/06/13 02:16:43;;;;;;;3.72;3.25;;;;;;;22.13;54.57;100515.41;4789121;30;20054;-80
2021/06/13 02:19:49;;;;;;;6.20;3.10;;;;;;;22.11;54.88;100512.91;4789357;30;20595;-76
2021/06/13 02:23:03;;;;;;;3.80;3.40;;;;;;;22.10;54.55;100518.59;4788995;30;20054;-76
2021/06/13 02:26:10;;;;;;;5.35;3.38;;;;;;;22.10;54.52;100515.84;4788963;30;20066;-79
2021/06/13 02:29:15;;;;;;;4.22;3.03;;;;;;;22.09;54.66;100517.72;4777622;30;20120;-82
2021/06/13 02:32:31;;;;;;;5.63;3.72;;;;;;;22.09;54.59;100517.72;4752657;30;20063;-77
2021/06/13 02:35:44;;;;;;;6.07;3.00;;;;;;;22.10;54.18;100519.41;4664974;30;20057;-77
2021/06/13 02:38:55;;;;;;;4.32;3.00;;;;;;;22.08;54.34;100524.22;4655386;30;20167;-76
2021/06/13 02:42:00;;;;;;;4.88;3.10;;;;;;;22.08;54.20;100526.97;4664252;30;20155;-81
2021/06/13 02:45:12;;;;;;;5.95;3.45;;;;;;;22.11;53.81;100523.84;4664803;30;20061;-79
2021/06/13 02:48:19;;;;;;;3.60;3.10;;;;;;;22.09;53.91;100522.34;4663956;30;20054;-75
2021/06/13 02:51:33;;;;;;;6.43;3.60;;;;;;;22.07;53.69;100530.78;4654626;30;20090;-75
2021/06/13 02:54:33;;;;;;;7.53;3.42;;;;;;;22.05;54.01;100529.28;4670113;30;20136;-79
2021/06/13 02:58:01;;;;;;;4.57;2.78;;;;;;;22.01;53.73;100526.09;4667887;30;20066;-79
2021/06/13 03:01:10;;;;;;;3.67;3.00;;;;;;;22.00;53.62;100527.13;4658066;30;20077;-78
2021/06/13 03:04:20;;;;;;;5.82;3.55;;;;;;;22.01;53.63;100524.22;4667932;30;20061;-77
2021/06/13 03:07:26;;;;;;;4.00;2.97;;;;;;;21.99;53.34;100531.78;4667535;30;20057;-76
2021/06/13 03:10:33;;;;;;;4.72;3.00;;;;;;;21.97;53.42;100524.84;4674964;30;20061;-77
2021/06/13 03:13:40;;;;;;;8.48;3.28;;;;;;;21.91;53.58;100529.22;4750624;30;20067;-77
2021/06/13 03:16:46;;;;;;;5.10;3.13;;;;;;;21.89;53.88;100514.06;4772048;30;20515;-79
2021/06/13 03:19:51;;;;;;;6.05;3.00;;;;;;;21.88;53.49;100515.97;4774420;30;20079;-81
2021/06/13 03:22:58;;;;;;;5.80;3.10;;;;;;;21.86;53.76;100517.22;4774015;30;20099;-81
2021/06/13 03:26:04;;;;;;;4.70;2.90;;;;;;;21.79;54.27;100508.94;4772578;30;20059;-84
2021/06/13 03:29:12;;;;;;;3.53;2.85;;;;;;;21.80;53.74;100513.34;4762651;30;20541;-81
2021/06/13 03:32:18;;;;;;;3.88;3.20;;;;;;;21.79;54.01;100511.69;4773069;30;20054;-83
2021/06/13 03:35:24;;;;;;;4.25;3.33;;;;;;;21.76;54.05;100508.50;4773898;30;20515;-80
2021/06/13 03:38:30;;;;;;;6.32;3.10;;;;;;;21.76;54.06;100503.88;4782434;30;20055;-80
2021/06/13 03:41:35;;;;;;;4.53;3.08;;;;;;;21.72;54.23;100515.44;4773013;30;20051;-80
2021/06/13 03:44:41;;;;;;;3.83;3.30;;;;;;;21.72;54.10;100513.56;4773560;30;20392;-84
2021/06/13 03:47:46;;;;;;;9.13;3.10;;;;;;;21.73;54.25;100514.38;4781773;30;20062;-80
2021/06/13 03:50:50;;;;;;;4.32;3.08;;;;;;;21.73;54.26;100515.22;4780477;30;20054;-81
2021/06/13 03:53:59;;;;;;;4.53;2.70;;;;;;;21.77;53.98;100512.94;4791648;30;20396;-82
2021/06/13 03:57:06;;;;;;;6.28;2.72;;;;;;;21.85;53.98;100518.28;4791365;30;20127;-84
2021/06/13 04:00:12;;;;;;;3.60;3.17;;;;;;;21.99;53.40;100522.75;4780330;30;20062;-85
2021/06/13 04:03:20;;;;;;;3.95;3.20;;;;;;;22.08;53.59;100518.75;4791322;30;20070;-80
2021/06/13 04:06:25;;;;;;;6.28;2.83;;;;;;;22.27;52.81;100519.91;4790604;29;20055;-76
2021/06/13 04:09:30;;;;;;;4.63;3.15;;;;;;;22.40;52.44;100519.91;4779852;30;20066;-82
2021/06/13 04:12:36;;;;;;;4.07;2.70;;;;;;;22.55;52.16;100520.56;4791244;30;20058;-79
2021/06/13 04:15:40;;;;;;;6.20;3.00;;;;;;;22.79;51.37;100520.00;4791119;30;20062;-81
2021/06/13 04:18:45;;;;;;;5.68;2.80;;;;;;;23.02;50.38;100530.53;4779735;30;20412;-80
2021/06/13 04:21:50;;;;;;;4.97;2.70;;;;;;;23.30;49.92;100525.69;4779771;30;20062;-84
2021/06/13 04:24:55;;;;;;;9.40;3.00;;;;;;;23.57;48.93;100532.81;4790520;30;20063;-83
2021/06/13 04:28:00;;;;;;;3.50;2.88;;;;;;;23.97;47.87;100521.72;4789904;30;20058;-79
2021/06/13 04:31:11;;;;;;;3.08;2.70;;;;;;;24.51;47.19;100530.34;4789782;30;20050;-83
2021/06/13 04:34:16;;;;;;;4.85;3.10;;;;;;;24.88;45.81;100526.72;4790718;30;20547;-77
2021/06/13 04:37:20;;;;;;;4.43;2.53;;;;;;;25.04;46.37;100534.41;4791156;30;20054;-85
2021/06/13 04:40:25;;;;;;;4.10;2.55;;;;;;;24.81;46.52;100534.19;4790850;30;20054;-82
2021/06/13 04:43:30;;;;;;;4.40;2.67;;;;;;;24.58;47.35;100533.88;4790920;30;20050;-84
2021/06/13 04:46:34;;;;;;;3.80;2.60;;;;;;;24.63;47.27;100534.06;4790115;30;20050;-83
2021/06/13 04:49:38;;;;;;;6.32;4.10;;;;;;;24.56;47.01;100539.59;4755006;30;20059;-79
2021/06/13 04:52:44;;;;;;;7.70;4.10;;;;;;;24.54;47.42;100538.13;4754544;30;20512;-79
2021/06/13 04:55:52;;;;;;;8.02;3.20;;;;;;;24.54;47.22;100540.88;4754320;30;20055;-79
2021/06/13 04:58:56;;;;;;;5.78;3.00;;;;;;;24.68;47.11;100538.88;4754110;30;20071;-84
2021/06/13 05:02:00;;;;;;;10.48;3.03;;;;;;;24.65;47.29;100537.41;4755111;30;20055;-83
2021/06/13 05:05:06;;;;;;;4.75;2.80;;;;;;;24.94;46.54;100549.69;4754735;30;20059;-79
2021/06/13 05:08:10;;;;;;;4.75;2.70;;;;;;;25.34;45.80;100553.78;4754433;30;20059;-85
2021/06/13 05:11:14;;;;;;;3.47;2.53;;;;;;;25.56;45.53;100556.97;4753766;30;20063;-80
2021/06/13 05:14:18;;;;;;;5.50;2.63;;;;;;;25.77;46.10;100570.31;4754624;30;20055;-82
2021/06/13 05:17:23;;;;;;;5.88;2.72;;;;;;;25.75;46.40;100572.47;4754685;30;20059;-84
2021/06/13 05:20:27;;;;;;;7.55;3.35;;;;;;;25.82;46.75;100570.47;4754165;30;20063;-81
2021/06/13 05:23:32;;;;;;;5.97;3.00;;;;;;;26.56;46.01;100575.69;4754276;30;20055;-78
2021/06/13 05:26:36;;;;;;;3.45;2.95;;;;;;;27.22;44.70;100575.53;4754299;30;20140;-84
2021/06/13 05:29:40;;;;;;;6.40;2.78;;;;;;;28.09;42.32;100587.56;4753448;30;20051;-84
2021/06/13 05:32:26;;;;;;;7.75;2.83;;;;;;;28.19;42.17;100585.03;4760017;30;20128;-83
2021/06/13 05:35:30;;;;;;;3.88;3.00;;;;;;;28.50;42.24;100579.03;4753519;30;20067;-78
2021/06/13 05:38:34;;;;;;;8.10;3.22;;;;;;;29.20;40.46;100574.03;4754051;30;20500;-82
2021/06/13 05:41:39;;;;;;;4.07;2.53;;;;;;;30.79;37.67;100580.41;4763439;30;20063;-80
2021/06/13 05:44:43;;;;;;;4.00;2.97;;;;;;;31.35;36.66;100587.34;4754635;30;20063;-81
2021/06/13 05:47:48;;;;;;;7.38;2.67;;;;;;;31.75;36.00;100586.84;4767521;30;20399;-83
2021/06/13 05:50:52;;;;;;;6.40;2.70;;;;;;;32.54;34.01;100599.50;4788686;30;20062;-81
2021/06/13 05:53:57;;;;;;;4.68;2.78;;;;;;;33.72;31.96;100599.38;4789555;30;20412;-83
2021/06/13 05:57:02;;;;;;;3.80;2.97;;;;;;;34.82;30.75;100600.97;4789670;30;20062;-82
2021/06/13 06:00:27;;;;;;;5.47;2.40;;;;;;;36.64;27.76;100593.66;4789805;30;20480;-82
2021/06/13 06:03:31;;;;;;;3.90;2.15;;;;;;;38.53;26.32;100591.75;4760630;30;20054;-87
2021/06/13 06:06:36;;;;;;;4.20;2.15;;;;;;;39.60;24.74;100595.38;4771633;30;20059;-79
2021/06/13 06:09:40;;;;;;;2.90;2.20;;;;;;;40.18;24.13;100600.81;4771573;30;20507;-82
2021/06/13 06:12:45;;;;;;;5.63;2.20;;;;;;;41.28;22.88;100606.16;4771217;30;20055;-79
2021/06/13 06:15:50;;;;;;;8.60;2.25;;;;;;;42.61;21.58;100605.63;4771005;30;20051;-81
2021/06/13 06:18:54;;;;;;;4.05;2.10;;;;;;;43.94;20.47;100614.78;4760319;30;20435;-80
2021/06/13 06:21:58;;;;;;;4.95;1.80;;;;;;;46.04;18.91;100622.97;4771604;30;20395;-83
2021/06/13 06:25:05;;;;;;;6.63;1.90;;;;;;;47.08;17.52;100611.75;4771178;30;20055;-83
2021/06/13 06:28:09;;;;;;;3.25;1.70;;;;;;;47.51;17.01;100617.13;4770765;30;20055;-80
2021/06/13 06:31:14;;;;;;;2.83;1.80;;;;;;;48.57;16.57;100616.22;4769677;30;20055;-85
2021/06/13 06:34:19;;;;;;;3.03;1.85;;;;;;;47.99;16.73;100618.50;4776941;30;20493;-84
2021/06/13 06:37:24;;;;;;;6.63;2.00;;;;;;;49.82;15.04;100619.53;4771070;30;20055;-87
2021/06/13 06:40:28;;;;;;;3.00;1.70;;;;;;;49.95;14.82;100618.06;4770978;30;20067;-80
2021/06/13 06:43:33;;;;;;;4.72;1.67;;;;;;;49.28;15.32;100614.44;4771006;30;20051;-82
2021/06/13 06:46:38;;;;;;;3.95;2.80;;;;;;;49.15;15.32;100619.53;4770873;30;20392;-83
2021/06/13 06:49:43;;;;;;;5.00;4.32;;;;;;;50.55;14.38;100624.28;4770893;30;20384;-85
2021/06/13 06:52:48;;;;;;;3.97;2.05;;;;;;;49.87;15.62;100624.91;4778305;29;20415;-79
2021/06/13 06:55:52;;;;;;;5.88;2.00;;;;;;;50.00;16.07;100626.28;4770938;30;20055;-82
2021/06/13 06:58:57;;;;;;;6.60;2.13;;;;;;;49.74;15.32;100632.09;4770642;30;20074;-79
2021/06/13 07:02:01;;;;;;;3.60;1.95;;;;;;;50.23;15.08;100628.91;4771121;30;20063;-82
2021/06/13 07:05:06;;;;;;;4.45;1.95;;;;;;;50.51;14.84;100635.72;4759824;30;20051;-77
2021/06/13 07:08:11;;;;;;;2.28;1.52;;;;;;;51.32;14.60;100630.50;4770761;30;20058;-79
2021/06/13 07:11:15;;;;;;;4.53;1.80;;;;;;;51.78;14.89;100633.50;4770756;30;20066;-82
2021/06/13 07:14:20;;;;;;;4.75;1.90;;;;;;;51.46;14.27;100634.66;4759810;30;20055;-76
2021/06/13 07:17:24;;;;;;;2.85;1.88;;;;;;;50.03;15.47;100636.91;4769964;30;20055;-80
2021/06/13 07:20:29;;;;;;;3.65;1.90;;;;;;;49.46;15.74;100641.94;4770598;30;20078;-80
2021/06/13 07:23:34;;;;;;;3.30;1.70;;;;;;;50.87;14.73;100636.78;4770561;30;20420;-76
2021/06/13 07:26:38;;;;;;;3.95;1.75;;;;;;;51.12;14.30;100642.66;4770593;30;20392;-78
2021/06/13 07:29:43;;;;;;;5.43;2.17;;;;;;;50.65;15.38;100641.56;4770386;30;20055;-76
2021/06/13 07:32:48;;;;;;;3.38;1.67;;;;;;;51.61;13.80;100636.38;4770529;30;20066;-76
2021/06/13 07:35:53;;;;;;;4.90;1.90;;;;;;;50.78;14.35;100636.31;4770567;30;20064;-79
2021/06/13 07:38:57;;;;;;;3.47;1.50;;;;;;;51.18;14.36;100639.03;4770543;30;20503;-79
2021/06/13 07:42:02;;;;;;;2.88;1.73;;;;;;;51.33;14.33;100639.94;4761541;30;20503;-80
2021/06/13 07:45:09;;;;;;;4.88;1.90;;;;;;;50.59;14.53;100630.91;4773764;30;20051;-79
2021/06/13 07:48:13;;;;;;;4.07;1.60;;;;;;;50.24;14.99;100642.03;4761323;30;20055;-75
2021/06/13 07:51:19;;;;;;;3.97;1.70;;;;;;;50.91;15.05;100626.22;4768561;30;20074;-79
2021/06/13 07:54:23;;;;;;;5.32;1.83;;;;;;;51.76;14.30;100626.56;4771759;30;20409;-82
2021/06/13 07:57:27;;;;;;;2.35;1.67;;;;;;;50.51;14.67;100630.00;4773517;30;20059;-80
2021/06/13 08:00:32;;;;;;;4.07;1.80;;;;;;;49.22;15.99;100628.22;4773011;30;20055;-78
2021/06/13 08:03:40;;;;;;;15.07;3.75;;;;;;;51.21;15.32;100626.75;4772034;30;20063;-74
2021/06/13 08:06:45;;;;;;;10.38;3.25;;;;;;;50.84;14.89;100625.34;4770871;30;20039;-75
2021/06/13 08:09:49;;;;;;;4.25;1.88;;;;;;;48.89;16.36;100628.16;4770713;30;20400;-81
2021/06/13 08:12:54;;;;;;;3.58;1.65;;;;;;;45.39;19.00;100627.19;4770830;30;20058;-77
2021/06/13 08:15:58;;;;;;;3.63;1.98;;;;;;;42.60;21.29;100625.72;4770675;30;20055;-78
2021/06/13 08:19:02;;;;;;;3.22;1.77;;;;;;;40.38;23.48;100635.97;4770222;30;20068;-74
2021/06/13 08:22:07;;;;;;;7.10;1.83;;;;;;;39.10;25.12;100624.69;4770710;30;20519;-74
2021/06/13 08:25:13;;;;;;;4.38;2.20;;;;;;;37.54;27.21;100628.69;4771148;30;20058;-74
2021/06/13 08:28:18;;;;;;;7.05;2.33;;;;;;;36.93;28.06;100627.97;4771066;30;20059;-74
2021/06/13 08:31:25;;;;;;;6.82;2.45;;;;;;;36.64;29.20;100630.03;4771079;30;20078;-74
2021/06/13 08:34:29;;;;;;;6.60;2.58;;;;;;;36.29;29.54;100629.31;4771078;30;20075;-74
2021/06/13 08:37:34;;;;;;;13.68;2.90;;;;;;;35.63;30.88;100623.56;4772661;30;20062;-73
2021/06/13 08:40:39;;;;;;;4.18;2.70;;;;;;;35.21;31.58;100626.09;4772811;30;20055;-73
2021/06/13 08:43:46;;;;;;;2.97;2.47;;;;;;;35.25;31.87;100630.84;4772715;30;20059;-73
2021/06/13 08:46:52;;;;;;;6.30;3.33;;;;;;;34.65;32.48;100625.59;4772736;30;20058;-86
2021/06/13 08:49:57;;;;;;;5.60;3.70;;;;;;;33.98;33.00;100629.69;4772721;30;20059;-73
2021/06/13 08:53:03;;;;;;;5.45;3.42;;;;;;;33.88;34.14;100628.88;4771734;30;20074;-73
2021/06/13 08:56:07;;;;;;;6.28;3.67;;;;;;;33.54;34.74;100620.28;4772600;30;20512;-73
2021/06/13 08:59:12;;;;;;;6.53;3.90;;;;;;;33.31;35.32;100623.59;4772722;30;20058;-74
2021/06/13 09:02:17;;;;;;;4.85;3.40;;;;;;;33.50;35.46;100624.72;4772448;30;20388;-73
2021/06/13 09:05:26;;;;;;;6.22;3.45;;;;;;;33.69;35.58;100617.50;4772423;30;20047;-73
2021/06/13 09:08:36;;;;;;;7.10;3.70;;;;;;;33.82;35.13;100622.50;4772340;30;20059;-73
2021/06/13 09:11:58;;;;;;;4.75;4.10;;;;;;;33.43;35.51;100619.41;4771991;30;20408;-73
2021/06/13 09:15:05;;;;;;;7.03;4.07;;;;;;;33.70;35.23;100619.16;4772165;30;20141;-73
2021/06/13 09:18:27;;;;;;;11.40;4.43;;;;;;;33.71;35.20;100612.47;4771158;30;20189;-73
2021/06/13 09:21:33;;;;;;;5.43;4.38;;;;;;;33.42;35.64;100614.13;4772128;30;20055;-73
2021/06/13 09:24:37;;;;;;;7.15;4.25;;;;;;;33.37;34.72;100614.13;4772053;30;20063;-73
2021/06/13 09:28:06;;;;;;;7.18;3.90;;;;;;;33.51;35.24;100601.31;4772255;30;20055;-73
2021/06/13 09:31:23;;;;;;;5.55;3.83;;;;;;;33.69;34.88;100603.56;4772153;30;20051;-73
2021/06/13 09:34:28;;;;;;;5.68;3.67;;;;;;;33.60;34.68;100590.50;4771931;30;20519;-73
2021/06/13 09:37:32;;;;;;;6.57;3.40;;;;;;;33.60;35.27;100602.47;4772099;30;20067;-73
2021/06/13 09:40:39;;;;;;;4.00;3.60;;;;;;;33.26;36.08;100599.38;4771833;30;20176;-73
2021/06/13 09:43:47;;;;;;;5.63;3.45;;;;;;;33.33;35.40;100605.50;4771670;30;20082;-73
2021/06/13 09:46:54;;;;;;;4.38;3.83;;;;;;;33.56;34.97;100598.56;4771740;30;20063;-73
2021/06/13 09:49:58;;;;;;;7.50;3.40;;;;;;;33.45;35.98;100602.47;4771654;30;20058;-73
2021/06/13 09:53:26;;;;;;;8.18;3.60;;;;;;;33.51;36.24;100600.47;4771640;30;20058;-73
2021/06/13 09:56:39;;;;;;;6.05;3.40;;;;;;;33.56;35.31;100601.34;4771487;30;20070;-73
2021/06/13 09:59:43;;;;;;;4.53;3.38;;;;;;;33.35;36.39;100599.66;4771467;30;20059;-73
2021/06/13 10:02:47;;;;;;;5.68;3.85;;;;;;;33.42;35.87;100587.16;4771656;30;20506;-73
2021/06/13 10:05:56;;;;;;;9.38;3.90;;;;;;;33.67;35.38;100583.53;4770497;30;20055;-73
2021/06/13 10:09:07;;;;;;;7.00;3.35;;;;;;;33.57;35.51;100585.47;4771416;30;20059;-73
2021/06/13 10:12:15;;;;;;;4.13;3.47;;;;;;;33.64;35.46;100586.03;4771374;30;20051;-73
2021/06/13 10:15:20;;;;;;;4.82;3.65;;;;;;;33.49;35.68;100578.50;4771583;30;20055;-73
2021/06/13 10:18:24;;;;;;;5.82;3.60;;;;;;;33.54;35.26;100586.88;4771402;30;20055;-73
2021/06/13 10:21:35;;;;;;;4.75;3.22;;;;;;;33.49;34.87;100581.28;4771477;30;20059;-73
2021/06/13 10:24:43;;;;;;;7.28;3.55;;;;;;;33.32;36.01;100586.31;4771210;30;20424;-73
2021/06/13 10:27:47;;;;;;;11.43;3.97;;;;;;;33.32;36.40;100583.53;4770944;30;20072;-73
2021/06/13 10:30:52;;;;;;;5.97;3.67;;;;;;;33.30;37.14;100575.47;4771072;30;20063;-73
2021/06/13 10:33:56;;;;;;;4.70;3.55;;;;;;;33.27;36.06;100578.78;4771081;30;20074;-72
2021/06/13 10:37:08;;;;;;;4.25;3.58;;;;;;;33.31;36.08;100573.50;4770960;30;20070;-84
2021/06/13 10:40:12;;;;;;;3.95;3.50;;;;;;;33.39;36.22;100575.72;4770991;30;20074;-85
2021/06/13 10:43:23;;;;;;;6.93;3.45;;;;;;;33.32;36.58;100570.44;4770065;30;20070;-74
2021/06/13 10:46:29;;;;;;;5.60;3.60;;;;;;;33.16;36.58;100565.16;4770900;30;20055;-83
2021/06/13 10:49:37;;;;;;;4.18;3.60;;;;;;;33.12;36.31;100567.66;4770874;30;20404;-73
2021/06/13 10:53:00;;;;;;;3.97;3.28;;;;;;;33.16;36.73;100565.97;4770839;30;20062;-72
2021/06/13 10:56:22;;;;;;;5.95;3.75;;;;;;;33.20;37.21;100560.72;4770852;30;20063;-84
2021/06/13 10:59:32;;;;;;;7.10;4.10;;;;;;;33.17;37.79;100555.69;4770332;30;20400;-85
2021/06/13 11:02:36;;;;;;;5.35;3.55;;;;;;;33.15;37.66;100560.69;4770782;30;20124;-73
2021/06/13 11:05:43;;;;;;;5.70;3.60;;;;;;;33.24;36.93;100557.09;4770711;30;20062;-73
2021/06/13 11:09:01;;;;;;;5.50;3.60;;;;;;;33.15;36.94;100564.31;4770731;30;20385;-73
2021/06/13 11:12:47;;;;;;;7.97;3.45;;;;;;;33.01;37.19;100559.56;4770712;30;20050;-73
2021/06/13 11:15:52;;;;;;;4.82;3.28;;;;;;;33.15;36.88;100557.91;4771305;30;20389;-73
2021/06/13 11:19:23;;;;;;;3.80;3.40;;;;;;;33.30;36.39;100555.13;4774138;30;20055;-73
2021/06/13 11:22:32;;;;;;;4.90;3.20;;;;;;;33.40;36.00;100553.19;4774336;30;20058;-73
2021/06/13 11:25:39;;;;;;;5.68;3.60;;;;;;;33.34;36.81;100550.66;4774006;30;20054;-73
2021/06/13 11:28:45;;;;;;;5.30;3.60;;;;;;;33.28;36.67;100552.63;4773961;30;20128;-73
2021/06/13 11:31:51;;;;;;;6.72;3.50;;;;;;;33.32;36.37;100542.63;4773710;30;20062;-72
2021/06/13 11:34:56;;;;;;;7.93;4.00;;;;;;;33.27;37.53;100547.34;4774183;30;20074;-73
2021/06/13 11:38:10;;;;;;;7.30;3.30;;;;;;;33.31;37.23;100545.66;4773869;30;20064;-73
2021/06/13 11:41:30;;;;;;;4.10;3.70;;;;;;;33.34;36.47;100540.38;4773753;30;20067;-73
2021/06/13 11:44:38;;;;;;;4.80;3.65;;;;;;;33.38;36.51;100535.09;4773456;30;20080;-74
2021/06/13 11:47:42;;;;;;;5.03;3.70;;;;;;;33.20;36.18;100544.00;4776363;30;20062;-74
2021/06/13 11:51:02;;;;;;;6.22;3.55;;;;;;;33.18;36.64;100537.88;4786515;29;20058;-75
2021/06/13 11:54:07;;;;;;;4.95;3.60;;;;;;;32.98;37.09;100535.06;4776654;30;20511;-78
2021/06/13 11:57:14;;;;;;;6.97;4.15;;;;;;;33.09;37.69;100536.75;4783780;30;20059;-74
2021/06/13 12:00:19;;;;;;;7.05;3.40;;;;;;;33.15;36.33;100536.50;4791022;30;20423;-74
2021/06/13 12:03:24;;;;;;;3.78;3.00;;;;;;;33.27;36.56;100533.44;4791287;30;20058;-73
2021/06/13 12:06:29;;;;;;;4.75;3.10;;;;;;;33.29;35.54;100528.41;4791092;30;20055;-74
2021/06/13 12:09:33;;;;;;;4.30;3.20;;;;;;;33.35;35.90;100525.34;4791249;30;20511;-74
2021/06/13 12:12:37;;;;;;;5.18;3.33;;;;;;;33.06;35.61;100515.09;4782873;29;20054;-72
2021/06/13 12:15:41;;;;;;;4.38;3.10;;;;;;;32.92;35.76;100514.75;4772539;30;20075;-74
2021/06/13 12:19:04;;;;;;;6.18;3.20;;;;;;;32.94;36.29;100506.97;4774470;30;20724;-74
2021/06/13 12:22:27;;;;;;;6.97;3.10;;;;;;;33.08;36.14;100512.84;4780817;29;20058;-85
2021/06/13 12:29:00;;;;;;;;;;;;;;;33.07;36.40;100502.81;4788085;29;20440;-73
2021/06/13 12:32:14;;;;;;;4.57;2.92;;;;;;;33.14;36.18;100500.59;4785336;29;19921;-75
2021/06/13 12:35:20;;;;;;;5.13;3.13;;;;;;;33.18;36.25;100501.72;4788058;29;20051;-73
2021/06/13 12:38:25;;;;;;;6.78;4.53;;;;;;;33.11;36.09;100493.63;4789880;29;20050;-73
2021/06/13 12:41:30;;;;;;;6.95;3.42;;;;;;;33.17;36.50;100491.69;4791164;30;20070;-73
2021/06/13 12:44:36;;;;;;;8.18;3.10;;;;;;;33.26;37.33;100495.56;4790518;30;20486;-76
2021/06/13 12:47:43;;;;;;;6.47;3.22;;;;;;;33.28;36.38;100483.03;4777858;29;20066;-81
2021/06/13 12:50:47;;;;;;;5.47;3.45;;;;;;;33.21;36.16;100484.44;4772638;30;20058;-84
2021/06/13 12:53:54;;;;;;;4.07;2.97;;;;;;;33.28;35.74;100480.25;4772609;30;20484;-83
2021/06/13 12:56:59;;;;;;;9.23;3.42;;;;;;;33.39;35.51;100478.28;4772040;30;20059;-80
2021/06/13 13:00:04;;;;;;;4.93;3.70;;;;;;;33.43;36.22;100479.38;4779537;29;20083;-82
2021/06/13 13:03:12;;;;;;;3.83;2.92;;;;;;;33.42;33.69;100474.94;4773732;29;20050;-74
2021/06/13 13:06:17;;;;;;;3.50;2.65;;;;;;;33.42;34.16;100477.75;4785557;29;20054;-84
2021/06/13 13:09:21;;;;;;;5.68;2.40;;;;;;;33.42;32.76;100477.75;4783992;30;20058;-77
2021/06/13 13:12:26;;;;;;;5.55;2.80;;;;;;;33.54;34.10;100478.28;4788463;30;20416;-76
2021/06/13 13:15:30;;;;;;;6.93;2.80;;;;;;;33.60;34.22;100471.59;4789446;30;20058;-74
2021/06/13 13:18:40;;;;;;;4.78;2.47;;;;;;;33.60;33.76;100474.38;4789350;30;20062;-83
2021/06/13 13:21:46;;;;;;;4.65;2.80;;;;;;;33.62;34.20;100472.16;4789344;30;20078;-85
2021/06/13 13:24:50;;;;;;;4.07;2.55;;;;;;;33.69;33.80;100474.63;4789166;30;20134;-83
2021/06/13 13:27:55;;;;;;;4.78;2.28;;;;;;;33.65;32.39;100470.75;4760505;30;20535;-82
2021/06/13 13:31:13;;;;;;;4.22;2.03;;;;;;;33.63;32.40;100475.78;4772388;30;20055;-79
2021/06/13 13:34:17;;;;;;;5.25;2.20;;;;;;;33.62;32.53;100474.94;4789489;30;20078;-75
2021/06/13 13:37:21;;;;;;;4.68;2.22;;;;;;;33.69;31.89;100474.63;4787597;30;20047;-84
2021/06/13 13:40:25;;;;;;;3.67;2.65;;;;;;;33.74;32.69;100466.25;4788739;29;20062;-74
2021/06/13 13:43:30;;;;;;;5.88;2.25;;;;;;;33.73;33.62;100465.41;4775705;30;20062;-74
2021/06/13 13:46:37;;;;;;;6.80;2.53;;;;;;;33.78;34.13;100462.59;4786761;30;20051;-74
2021/06/13 13:49:41;;;;;;;7.70;3.17;;;;;;;33.79;33.89;100457.88;4762809;30;20056;-73
2021/06/13 13:52:47;;;;;;;2.80;2.22;;;;;;;33.76;33.74;100459.28;4771200;30;20519;-74
2021/06/13 13:55:57;;;;;;;4.22;2.30;;;;;;;33.82;33.18;100457.31;4769791;30;20074;-73
2021/06/13 13:59:01;;;;;;;3.67;2.40;;;;;;;33.76;32.77;100453.72;4770757;30;20079;-80
2021/06/13 14:02:07;;;;;;;4.07;2.30;;;;;;;33.79;33.25;100444.78;4769545;30;20059;-73
2021/06/13 14:05:11;;;;;;;3.53;2.08;;;;;;;33.83;32.39;100442.25;4769162;30;20059;-73
2021/06/13 14:08:16;;;;;;;7.93;2.38;;;;;;;33.86;32.54;100445.31;4753138;30;20073;-77
2021/06/13 14:11:21;;;;;;;2.30;1.80;;;;;;;33.90;31.72;100442.81;4761123;30;20702;-73
2021/06/13 14:14:26;;;;;;;4.75;1.70;;;;;;;33.97;32.39;100444.13;4750480;30;20071;-74
2021/06/13 14:17:30;;;;;;;3.55;2.20;;;;;;;34.00;31.48;100438.00;4761949;30;20051;-73
2021/06/13 14:20:34;;;;;;;2.97;1.85;;;;;;;34.00;30.83;100435.19;4752579;30;20506;-74
2021/06/13 14:23:45;;;;;;;6.13;2.15;;;;;;;33.97;30.85;100432.16;4752711;30;20075;-73
2021/06/13 14:26:50;;;;;;;2.95;1.85;;;;;;;34.04;30.95;100432.69;4753403;30;20167;-73
2021/06/13 14:29:54;;;;;;;4.20;1.65;;;;;;;34.10;30.34;100436.31;4753095;30;20055;-73
2021/06/13 14:32:58;;;;;;;3.47;2.05;;;;;;;34.01;29.61;100433.25;4753328;30;20055;-73